createdAt,value
2017-09-22T00:00:26.263Z,0
2017-09-22T00:01:26.256Z,0
2017-09-22T00:02:25.944Z,0
2017-09-22T00:03:26.251Z,0
2017-09-22T00:04:26.239Z,0
2017-09-22T00:05:26.240Z,0
2017-09-22T00:06:26.232Z,0
2017-09-22T00:07:26.225Z,0
2017-09-22T00:08:25.906Z,0
2017-09-22T00:09:26.212Z,0
2017-09-22T00:10:25.886Z,0
2017-09-22T00:11:25.579Z,0
2017-09-22T00:12:25.573Z,0
2017-09-22T00:13:25.879Z,0
2017-09-22T00:14:25.872Z,0
2017-09-22T00:15:25.862Z,0
2017-09-22T00:16:25.857Z,0
2017-09-22T00:17:25.852Z,0
2017-09-22T00:18:26.156Z,0
2017-09-22T00:19:25.837Z,0
2017-09-22T00:20:25.517Z,0
2017-09-22T00:21:25.819Z,0
2017-09-22T00:22:25.510Z,0
2017-09-22T00:23:25.809Z,0
2017-09-22T00:24:25.488Z,0
2017-09-22T00:25:25.486Z,0
2017-09-22T00:26:25.789Z,0
2017-09-22T00:27:25.476Z,0
2017-09-22T00:28:25.586Z,0
2017-09-22T00:29:25.576Z,0
2017-09-22T00:30:25.899Z,0
2017-09-22T00:31:26.203Z,0
2017-09-22T00:32:26.198Z,0
2017-09-22T00:33:25.555Z,0
2017-09-22T00:34:25.863Z,0
2017-09-22T00:35:26.182Z,0
2017-09-22T00:36:26.186Z,0
2017-09-22T00:37:25.859Z,0
2017-09-22T00:38:26.176Z,0
2017-09-22T00:39:26.169Z,0
2017-09-22T00:40:26.156Z,0
2017-09-22T00:41:25.829Z,0
2017-09-22T00:42:26.141Z,0
2017-09-22T00:43:26.133Z,0
2017-09-22T00:44:26.130Z,0
2017-09-22T00:45:25.802Z,0
2017-09-22T00:46:26.113Z,0
2017-09-22T00:47:26.102Z,0
2017-09-22T00:48:26.101Z,0
2017-09-22T00:49:25.770Z,0
2017-09-22T00:50:26.093Z,0
2017-09-22T00:51:25.435Z,0
2017-09-22T00:52:26.069Z,0
2017-09-22T00:53:25.742Z,0
2017-09-22T00:54:25.416Z,0
2017-09-22T00:55:26.057Z,0
2017-09-22T00:56:25.731Z,0
2017-09-22T00:57:25.718Z,0
2017-09-22T00:58:25.709Z,0
2017-09-22T00:59:26.019Z,0
2017-09-22T01:00:25.688Z,0
2017-09-22T01:01:26.043Z,0
2017-09-22T01:02:25.991Z,0
2017-09-22T01:03:25.353Z,0
2017-09-22T01:04:25.981Z,0
2017-09-22T01:05:25.984Z,0
2017-09-22T01:06:25.967Z,0
2017-09-22T01:07:25.959Z,0
2017-09-22T01:08:25.953Z,0
2017-09-22T01:09:25.942Z,0
2017-09-22T01:10:25.614Z,0
2017-09-22T01:11:25.932Z,0
2017-09-22T01:12:25.917Z,0
2017-09-22T01:13:25.274Z,0
2017-09-22T01:14:25.904Z,0
2017-09-22T01:15:25.934Z,0
2017-09-22T01:16:25.564Z,0
2017-09-22T01:17:25.557Z,0
2017-09-22T01:18:25.877Z,0
2017-09-22T01:19:25.546Z,0
2017-09-22T01:20:25.855Z,0
2017-09-22T01:21:25.846Z,0
2017-09-22T01:22:25.850Z,0
2017-09-22T01:23:25.192Z,0
2017-09-22T01:24:25.864Z,0
2017-09-22T01:25:25.502Z,0
2017-09-22T01:26:25.488Z,0
2017-09-22T01:27:25.487Z,0
2017-09-22T01:28:25.470Z,0
2017-09-22T01:29:25.147Z,0
2017-09-22T01:30:25.137Z,0
2017-09-22T01:31:25.450Z,0
2017-09-22T01:32:24.802Z,0
2017-09-22T01:33:25.436Z,0
2017-09-22T01:34:25.100Z,0
2017-09-22T01:35:25.099Z,0
2017-09-22T01:36:25.408Z,0
2017-09-22T01:37:24.763Z,0
2017-09-22T01:38:25.080Z,0
2017-09-22T01:39:25.382Z,0
2017-09-22T01:40:25.695Z,0
2017-09-22T01:41:25.371Z,0
2017-09-22T01:42:25.682Z,0
2017-09-22T01:43:25.357Z,0
2017-09-22T01:44:25.666Z,0
2017-09-22T01:45:25.919Z,0
2017-09-22T01:46:25.657Z,0
2017-09-22T01:47:25.644Z,0
2017-09-22T01:48:25.315Z,0
2017-09-22T01:49:25.309Z,0
2017-09-22T01:50:25.298Z,0
2017-09-22T01:51:25.301Z,0
2017-09-22T01:52:25.600Z,0
2017-09-22T01:53:25.270Z,0
2017-09-22T01:54:25.266Z,0
2017-09-22T01:55:25.578Z,0
2017-09-22T01:56:25.580Z,0
2017-09-22T01:57:25.239Z,0
2017-09-22T01:58:25.235Z,0
2017-09-22T01:59:25.549Z,0
2017-09-22T02:00:25.539Z,0
2017-09-22T02:01:25.539Z,0
2017-09-22T02:02:25.521Z,0
2017-09-22T02:03:25.202Z,0
2017-09-22T02:04:25.504Z,0
2017-09-22T02:05:25.498Z,0
2017-09-22T02:06:25.173Z,0
2017-09-22T02:07:25.161Z,0
2017-09-22T02:08:25.152Z,0
2017-09-22T02:09:25.488Z,0
2017-09-22T02:10:25.137Z,0
2017-09-22T02:11:25.448Z,0
2017-09-22T02:12:25.121Z,0
2017-09-22T02:13:25.115Z,0
2017-09-22T02:14:25.434Z,0
2017-09-22T02:15:25.419Z,0
2017-09-22T02:16:25.423Z,0
2017-09-22T02:17:25.087Z,0
2017-09-22T02:18:25.077Z,0
2017-09-22T02:19:25.394Z,0
2017-09-22T02:20:25.065Z,0
2017-09-22T02:21:25.057Z,0
2017-09-22T02:22:25.045Z,0
2017-09-22T02:23:25.361Z,0
2017-09-22T02:24:25.363Z,0
2017-09-22T02:25:24.701Z,0
2017-09-22T02:26:25.015Z,0
2017-09-22T02:27:25.324Z,0
2017-09-22T02:28:25.319Z,0
2017-09-22T02:29:24.992Z,0
2017-09-22T02:30:25.308Z,0
2017-09-22T02:31:25.294Z,0
2017-09-22T02:32:24.974Z,0
2017-09-22T02:33:24.637Z,0
2017-09-22T02:34:24.635Z,0
2017-09-22T02:35:24.633Z,0
2017-09-22T02:36:24.614Z,0
2017-09-22T02:37:25.264Z,0
2017-09-22T02:38:24.924Z,0
2017-09-22T02:39:25.231Z,0
2017-09-22T02:40:25.231Z,0
2017-09-22T02:41:24.898Z,0
2017-09-22T02:42:24.894Z,0
2017-09-22T02:43:25.208Z,0
2017-09-22T02:44:24.875Z,0
2017-09-22T02:45:25.184Z,0
2017-09-22T02:46:25.195Z,0
2017-09-22T02:47:24.856Z,0
2017-09-22T02:48:24.854Z,0
2017-09-22T02:49:24.844Z,0
2017-09-22T02:50:24.832Z,0
2017-09-22T02:51:25.146Z,0
2017-09-22T02:52:25.139Z,0
2017-09-22T02:53:24.807Z,0
2017-09-22T02:54:25.125Z,0
2017-09-22T02:55:24.803Z,0
2017-09-22T02:56:24.791Z,0
2017-09-22T02:57:24.782Z,0
2017-09-22T02:58:24.456Z,0
2017-09-22T02:59:25.095Z,0
2017-09-22T03:00:24.760Z,0
2017-09-22T03:01:24.435Z,0
2017-09-22T03:02:25.066Z,0
2017-09-22T03:03:25.058Z,0
2017-09-22T03:04:25.054Z,0
2017-09-22T03:05:25.049Z,0
2017-09-22T03:06:25.044Z,0
2017-09-22T03:07:24.712Z,0
2017-09-22T03:08:25.023Z,0
2017-09-22T03:09:24.376Z,0
2017-09-22T03:10:24.697Z,0
2017-09-22T03:11:24.997Z,0
2017-09-22T03:12:24.996Z,0
2017-09-22T03:13:24.999Z,0
2017-09-22T03:14:24.991Z,0
2017-09-22T03:15:24.655Z,0
2017-09-22T03:16:24.975Z,0
2017-09-22T03:17:24.973Z,0
2017-09-22T03:18:24.636Z,0
2017-09-22T03:19:24.954Z,0
2017-09-22T03:20:24.623Z,0
2017-09-22T03:21:24.937Z,0
2017-09-22T03:22:24.293Z,0
2017-09-22T03:23:24.915Z,0
2017-09-22T03:24:24.917Z,0
2017-09-22T03:25:24.912Z,0
2017-09-22T03:26:24.598Z,0
2017-09-22T03:27:24.581Z,0
2017-09-22T03:28:24.572Z,0
2017-09-22T03:29:23.923Z,0
2017-09-22T03:30:24.565Z,0
2017-09-22T03:31:24.865Z,0
2017-09-22T03:32:24.861Z,0
2017-09-22T03:33:24.864Z,0
2017-09-22T03:34:24.884Z,0
2017-09-22T03:35:24.527Z,0
2017-09-22T03:36:24.197Z,0
2017-09-22T03:37:24.832Z,0
2017-09-22T03:38:24.820Z,0
2017-09-22T03:39:24.815Z,0
2017-09-22T03:40:23.850Z,0
2017-09-22T03:41:24.804Z,0
2017-09-22T03:42:24.797Z,0
2017-09-22T03:43:24.788Z,0
2017-09-22T03:44:24.461Z,0
2017-09-22T03:45:24.781Z,0
2017-09-22T03:46:24.124Z,0
2017-09-22T03:47:24.118Z,0
2017-09-22T03:48:24.443Z,0
2017-09-22T03:49:24.750Z,0
2017-09-22T03:50:24.112Z,0
2017-09-22T03:51:24.734Z,0
2017-09-22T03:52:24.406Z,0
2017-09-22T03:53:24.717Z,0
2017-09-22T03:54:24.074Z,0
2017-09-22T03:55:24.392Z,0
2017-09-22T03:56:24.383Z,0
2017-09-22T03:57:24.052Z,0
2017-09-22T03:58:24.369Z,0
2017-09-22T03:59:24.683Z,0
2017-09-22T04:00:24.672Z,0
2017-09-22T04:01:24.029Z,0
2017-09-22T04:02:24.658Z,0
2017-09-22T04:03:24.655Z,0
2017-09-22T04:04:24.331Z,0
2017-09-22T04:05:24.321Z,0
2017-09-22T04:06:24.630Z,0
2017-09-22T04:07:24.627Z,0
2017-09-22T04:08:24.300Z,0
2017-09-22T04:09:24.289Z,0
2017-09-22T04:10:24.609Z,0
2017-09-22T04:11:24.593Z,0
2017-09-22T04:12:24.596Z,0
2017-09-22T04:13:24.260Z,0
2017-09-22T04:14:24.263Z,0
2017-09-22T04:15:24.251Z,0
2017-09-22T04:16:24.246Z,0
2017-09-22T04:17:24.235Z,0
2017-09-22T04:18:24.231Z,0
2017-09-22T04:19:24.221Z,0
2017-09-22T04:20:24.214Z,0
2017-09-22T04:21:24.214Z,0
2017-09-22T04:22:24.203Z,0
2017-09-22T04:23:24.514Z,0
2017-09-22T04:24:24.506Z,0
2017-09-22T04:25:24.501Z,0
2017-09-22T04:26:24.500Z,0
2017-09-22T04:27:24.166Z,0
2017-09-22T04:28:24.162Z,0
2017-09-22T04:29:24.190Z,0
2017-09-22T04:30:24.156Z,0
2017-09-22T04:31:24.765Z,0
2017-09-22T04:32:24.455Z,0
2017-09-22T04:33:24.459Z,0
2017-09-22T04:34:23.805Z,0
2017-09-22T04:35:24.438Z,0
2017-09-22T04:36:24.428Z,0
2017-09-22T04:37:24.096Z,0
2017-09-22T04:38:24.092Z,0
2017-09-22T04:39:24.404Z,0
2017-09-22T04:40:24.401Z,0
2017-09-22T04:41:24.081Z,0
2017-09-22T04:42:24.384Z,0
2017-09-22T04:43:24.059Z,0
2017-09-22T04:44:24.053Z,0
2017-09-22T04:45:24.362Z,0
2017-09-22T04:46:23.721Z,0
2017-09-22T04:47:24.359Z,0
2017-09-22T04:48:24.031Z,5
2017-09-22T04:49:24.021Z,5
2017-09-22T04:50:24.331Z,5
2017-09-22T04:51:24.334Z,5
2017-09-22T04:52:24.319Z,5
2017-09-22T04:53:23.988Z,5
2017-09-22T04:54:24.304Z,5
2017-09-22T04:55:23.986Z,5
2017-09-22T04:56:23.975Z,5
2017-09-22T04:57:23.964Z,10
2017-09-22T04:58:23.320Z,10
2017-09-22T04:59:23.633Z,10
2017-09-22T05:00:24.261Z,10
2017-09-22T05:01:23.947Z,10
2017-09-22T05:02:24.253Z,10
2017-09-22T05:03:24.245Z,15
2017-09-22T05:04:23.923Z,15
2017-09-22T05:05:23.913Z,15
2017-09-22T05:06:23.906Z,15
2017-09-22T05:07:23.895Z,15
2017-09-22T05:08:24.214Z,15
2017-09-22T05:09:23.565Z,20
2017-09-22T05:10:24.196Z,20
2017-09-22T05:11:24.188Z,25
2017-09-22T05:12:24.185Z,25
2017-09-22T05:13:24.175Z,30
2017-09-22T05:14:23.864Z,30
2017-09-22T05:15:23.845Z,35
2017-09-22T05:16:24.164Z,40
2017-09-22T05:17:24.153Z,40
2017-09-22T05:18:24.147Z,45
2017-09-22T05:19:23.825Z,45
2017-09-22T05:20:23.815Z,50
2017-09-22T05:21:23.808Z,45
2017-09-22T05:22:23.803Z,40
2017-09-22T05:23:23.476Z,40
2017-09-22T05:24:24.111Z,40
2017-09-22T05:25:23.779Z,40
2017-09-22T05:26:23.775Z,40
2017-09-22T05:27:23.770Z,40
2017-09-22T05:28:23.801Z,45
2017-09-22T05:29:23.759Z,40
2017-09-22T05:30:23.433Z,45
2017-09-22T05:31:24.079Z,45
2017-09-22T05:32:23.424Z,50
2017-09-22T05:33:23.736Z,55
2017-09-22T05:34:23.417Z,50
2017-09-22T05:35:24.041Z,65
2017-09-22T05:36:23.393Z,75
2017-09-22T05:37:24.030Z,75
2017-09-22T05:38:24.024Z,105
2017-09-22T05:39:24.018Z,115
2017-09-22T05:40:23.692Z,115
2017-09-22T05:41:23.692Z,105
2017-09-22T05:42:23.692Z,80
2017-09-22T05:43:23.993Z,75
2017-09-22T05:44:24.029Z,80
2017-09-22T05:45:23.985Z,80
2017-09-22T05:46:23.345Z,85
2017-09-22T05:47:23.660Z,95
2017-09-22T05:48:23.006Z,130
2017-09-22T05:49:23.970Z,150
2017-09-22T05:50:23.639Z,155
2017-09-22T05:51:23.640Z,145
2017-09-22T05:52:23.631Z,190
2017-09-22T05:53:23.640Z,200
2017-09-22T05:54:23.623Z,140
2017-09-22T05:55:23.611Z,130
2017-09-22T05:56:23.613Z,140
2017-09-22T05:57:23.286Z,130
2017-09-22T05:58:23.638Z,135
2017-09-22T05:59:23.282Z,140
2017-09-22T06:00:22.955Z,140
2017-09-22T06:01:23.266Z,145
2017-09-22T06:02:23.620Z,150
2017-09-22T06:03:23.903Z,155
2017-09-22T06:04:23.575Z,160
2017-09-22T06:05:23.247Z,175
2017-09-22T06:06:23.250Z,165
2017-09-22T06:07:23.891Z,175
2017-09-22T06:08:23.241Z,285
2017-09-22T06:09:23.555Z,215
2017-09-22T06:10:23.550Z,195
2017-09-22T06:11:23.868Z,235
2017-09-22T06:12:23.866Z,215
2017-09-22T06:13:23.855Z,210
2017-09-22T06:14:23.857Z,215
2017-09-22T06:15:23.531Z,220
2017-09-22T06:16:23.532Z,230
2017-09-22T06:17:23.854Z,235
2017-09-22T06:18:22.875Z,240
2017-09-22T06:19:23.842Z,410
2017-09-22T06:20:23.836Z,485
2017-09-22T06:21:23.192Z,475
2017-09-22T06:22:23.823Z,415
2017-09-22T06:23:23.497Z,285
2017-09-22T06:24:23.815Z,455
2017-09-22T06:25:23.494Z,525
2017-09-22T06:26:23.810Z,515
2017-09-22T06:27:23.802Z,470
2017-09-22T06:28:23.480Z,540
2017-09-22T06:29:23.798Z,530
2017-09-22T06:30:23.803Z,575
2017-09-22T06:31:23.801Z,480
2017-09-22T06:32:23.471Z,510
2017-09-22T06:33:23.471Z,480
2017-09-22T06:34:23.787Z,430
2017-09-22T06:35:23.785Z,535
2017-09-22T06:36:23.787Z,530
2017-09-22T06:37:23.460Z,525
2017-09-22T06:38:23.140Z,575
2017-09-22T06:39:23.784Z,630
2017-09-22T06:40:23.781Z,595
2017-09-22T06:41:23.782Z,625
2017-09-22T06:42:23.501Z,615
2017-09-22T06:43:23.463Z,615
2017-09-22T06:44:23.460Z,595
2017-09-22T06:45:23.476Z,455
2017-09-22T06:46:24.081Z,420
2017-09-22T06:47:23.782Z,670
2017-09-22T06:48:23.458Z,690
2017-09-22T06:49:23.782Z,610
2017-09-22T06:50:23.783Z,610
2017-09-22T06:51:23.465Z,520
2017-09-22T06:52:23.462Z,640
2017-09-22T06:53:23.790Z,525
2017-09-22T06:54:23.466Z,480
2017-09-22T06:55:23.469Z,575
2017-09-22T06:56:23.794Z,660
2017-09-22T06:57:23.153Z,595
2017-09-22T06:58:23.802Z,655
2017-09-22T06:59:23.803Z,825
2017-09-22T07:00:23.164Z,920
2017-09-22T07:01:23.802Z,880
2017-09-22T07:02:23.488Z,660
2017-09-22T07:03:23.808Z,610
2017-09-22T07:04:23.822Z,555
2017-09-22T07:05:23.501Z,530
2017-09-22T07:06:23.824Z,485
2017-09-22T07:07:23.818Z,475
2017-09-22T07:08:23.830Z,470
2017-09-22T07:09:23.834Z,515
2017-09-22T07:10:23.831Z,490
2017-09-22T07:11:23.833Z,500
2017-09-22T07:12:23.517Z,535
2017-09-22T07:13:23.519Z,600
2017-09-22T07:14:23.844Z,550
2017-09-22T07:15:23.842Z,520
2017-09-22T07:16:23.522Z,495
2017-09-22T07:17:23.526Z,465
2017-09-22T07:18:23.874Z,455
2017-09-22T07:19:23.530Z,470
2017-09-22T07:20:23.850Z,400
2017-09-22T07:21:23.851Z,375
2017-09-22T07:22:23.538Z,365
2017-09-22T07:23:22.889Z,415
2017-09-22T07:24:23.539Z,400
2017-09-22T07:25:23.536Z,490
2017-09-22T07:26:23.533Z,460
2017-09-22T07:27:23.850Z,545
2017-09-22T07:28:23.534Z,570
2017-09-22T07:29:22.889Z,975
2017-09-22T07:30:23.844Z,955
2017-09-22T07:31:23.850Z,625
2017-09-22T07:32:23.857Z,505
2017-09-22T07:33:23.847Z,515
2017-09-22T07:34:23.853Z,780
2017-09-22T07:35:23.208Z,915
2017-09-22T07:36:23.208Z,785
2017-09-22T07:37:23.212Z,645
2017-09-22T07:38:23.847Z,740
2017-09-22T07:39:23.529Z,890
2017-09-22T07:40:23.847Z,895
2017-09-22T07:41:23.850Z,895
2017-09-22T07:42:23.538Z,870
2017-09-22T07:43:23.849Z,860
2017-09-22T07:44:23.528Z,845
2017-09-22T07:45:23.535Z,270
2017-09-22T07:46:23.850Z,320
2017-09-22T07:47:23.217Z,925
2017-09-22T07:48:23.541Z,925
2017-09-22T07:49:24.200Z,940
2017-09-22T07:50:23.854Z,925
2017-09-22T07:51:23.861Z,940
2017-09-22T07:52:23.856Z,820
2017-09-22T07:53:23.887Z,665
2017-09-22T07:54:23.545Z,515
2017-09-22T07:55:23.533Z,1070
2017-09-22T07:56:23.545Z,905
2017-09-22T07:57:23.878Z,515
2017-09-22T07:58:23.872Z,360
2017-09-22T07:59:23.577Z,360
2017-09-22T08:00:23.864Z,370
2017-09-22T08:01:23.545Z,365
2017-09-22T08:02:23.229Z,360
2017-09-22T08:03:23.557Z,360
2017-09-22T08:04:23.869Z,345
2017-09-22T08:05:23.867Z,330
2017-09-22T08:06:23.582Z,305
2017-09-22T08:07:23.879Z,295
2017-09-22T08:08:23.867Z,295
2017-09-22T08:09:23.546Z,285
2017-09-22T08:10:24.268Z,280
2017-09-22T08:11:23.548Z,275
2017-09-22T08:12:23.866Z,280
2017-09-22T08:13:23.867Z,285
2017-09-22T08:14:23.543Z,275
2017-09-22T08:15:23.864Z,265
2017-09-22T08:16:23.544Z,255
2017-09-22T08:17:23.229Z,255
2017-09-22T08:18:23.543Z,255
2017-09-22T08:19:23.214Z,255
2017-09-22T08:20:23.540Z,245
2017-09-22T08:21:23.534Z,240
2017-09-22T08:22:23.855Z,230
2017-09-22T08:23:23.850Z,235
2017-09-22T08:24:23.531Z,230
2017-09-22T08:25:23.530Z,235
2017-09-22T08:26:23.851Z,235
2017-09-22T08:27:23.850Z,245
2017-09-22T08:28:23.204Z,250
2017-09-22T08:29:23.199Z,255
2017-09-22T08:30:23.836Z,250
2017-09-22T08:31:23.851Z,245
2017-09-22T08:32:23.837Z,235
2017-09-22T08:33:23.513Z,235
2017-09-22T08:34:23.513Z,235
2017-09-22T08:35:23.510Z,240
2017-09-22T08:36:23.821Z,240
2017-09-22T08:37:23.821Z,250
2017-09-22T08:38:23.728Z,255
2017-09-22T08:39:23.835Z,255
2017-09-22T08:40:23.810Z,255
2017-09-22T08:41:23.746Z,255
2017-09-22T08:42:22.842Z,265
2017-09-22T08:43:23.481Z,280
2017-09-22T08:44:23.799Z,285
2017-09-22T08:45:23.474Z,280
2017-09-22T08:46:23.476Z,290
2017-09-22T08:47:23.470Z,290
2017-09-22T08:48:23.465Z,310
2017-09-22T08:49:23.462Z,325
2017-09-22T08:50:23.456Z,350
2017-09-22T08:51:23.449Z,390
2017-09-22T08:52:23.453Z,420
2017-09-22T08:53:23.772Z,410
2017-09-22T08:54:23.447Z,395
2017-09-22T08:55:23.441Z,365
2017-09-22T08:56:23.762Z,360
2017-09-22T08:57:23.760Z,355
2017-09-22T08:58:23.120Z,345
2017-09-22T08:59:23.433Z,315
2017-09-22T09:00:23.427Z,310
2017-09-22T09:01:23.428Z,325
2017-09-22T09:02:23.744Z,320
2017-09-22T09:03:22.782Z,300
2017-09-22T09:04:23.420Z,305
2017-09-22T09:05:23.414Z,330
2017-09-22T09:06:23.747Z,350
2017-09-22T09:07:23.411Z,360
2017-09-22T09:08:23.409Z,370
2017-09-22T09:09:23.411Z,400
2017-09-22T09:10:23.725Z,455
2017-09-22T09:11:23.730Z,510
2017-09-22T09:12:23.727Z,540
2017-09-22T09:13:23.398Z,525
2017-09-22T09:14:23.713Z,510
2017-09-22T09:15:23.395Z,500
2017-09-22T09:16:23.714Z,500
2017-09-22T09:17:24.011Z,525
2017-09-22T09:18:23.392Z,545
2017-09-22T09:19:23.706Z,535
2017-09-22T09:20:23.378Z,500
2017-09-22T09:21:23.705Z,475
2017-09-22T09:22:23.379Z,465
2017-09-22T09:23:23.709Z,455
2017-09-22T09:24:23.377Z,445
2017-09-22T09:25:23.373Z,450
2017-09-22T09:26:23.375Z,430
2017-09-22T09:27:23.050Z,390
2017-09-22T09:28:23.693Z,370
2017-09-22T09:29:23.378Z,365
2017-09-22T09:30:23.367Z,360
2017-09-22T09:31:22.725Z,355
2017-09-22T09:32:23.374Z,355
2017-09-22T09:33:23.363Z,355
2017-09-22T09:34:23.683Z,350
2017-09-22T09:35:23.685Z,355
2017-09-22T09:36:23.678Z,350
2017-09-22T09:37:23.685Z,355
2017-09-22T09:38:23.044Z,360
2017-09-22T09:39:23.680Z,380
2017-09-22T09:40:23.358Z,385
2017-09-22T09:41:23.357Z,375
2017-09-22T09:42:23.353Z,365
2017-09-22T09:43:23.601Z,355
2017-09-22T09:44:23.357Z,340
2017-09-22T09:45:23.352Z,325
2017-09-22T09:46:23.354Z,310
2017-09-22T09:47:23.664Z,300
2017-09-22T09:48:23.670Z,305
2017-09-22T09:49:23.666Z,330
2017-09-22T09:50:23.666Z,355
2017-09-22T09:51:23.668Z,360
2017-09-22T09:52:23.022Z,355
2017-09-22T09:53:23.343Z,330
2017-09-22T09:54:23.375Z,310
2017-09-22T09:55:23.335Z,290
2017-09-22T09:56:23.014Z,275
2017-09-22T09:57:23.658Z,260
2017-09-22T09:58:23.333Z,260
2017-09-22T09:59:23.652Z,260
2017-09-22T10:00:23.658Z,270
2017-09-22T10:01:23.641Z,280
2017-09-22T10:02:22.683Z,300
2017-09-22T10:03:23.640Z,320
2017-09-22T10:04:23.328Z,345
2017-09-22T10:05:23.636Z,365
2017-09-22T10:06:23.316Z,380
2017-09-22T10:07:23.313Z,385
2017-09-22T10:08:23.646Z,385
2017-09-22T10:09:23.630Z,395
2017-09-22T10:10:23.626Z,400
2017-09-22T10:11:23.311Z,410
2017-09-22T10:12:23.305Z,400
2017-09-22T10:13:23.304Z,410
2017-09-22T10:14:23.555Z,400
2017-09-22T10:15:23.619Z,375
2017-09-22T10:16:23.621Z,350
2017-09-22T10:17:23.305Z,320
2017-09-22T10:18:23.621Z,305
2017-09-22T10:19:22.980Z,280
2017-09-22T10:20:23.327Z,270
2017-09-22T10:21:23.612Z,275
2017-09-22T10:22:23.603Z,295
2017-09-22T10:23:22.961Z,325
2017-09-22T10:24:23.280Z,315
2017-09-22T10:25:22.966Z,325
2017-09-22T10:26:23.603Z,325
2017-09-22T10:27:23.603Z,310
2017-09-22T10:28:23.272Z,290
2017-09-22T10:29:23.275Z,270
2017-09-22T10:30:23.275Z,265
2017-09-22T10:31:23.477Z,270
2017-09-22T10:32:23.599Z,280
2017-09-22T10:33:23.593Z,290
2017-09-22T10:34:23.585Z,305
2017-09-22T10:35:23.585Z,315
2017-09-22T10:36:23.255Z,330
2017-09-22T10:37:23.256Z,350
2017-09-22T10:38:23.256Z,390
2017-09-22T10:39:23.255Z,425
2017-09-22T10:40:23.258Z,445
2017-09-22T10:41:23.244Z,460
2017-09-22T10:42:23.569Z,445
2017-09-22T10:43:23.568Z,435
2017-09-22T10:44:23.567Z,415
2017-09-22T10:45:23.175Z,420
2017-09-22T10:46:23.596Z,440
2017-09-22T10:47:23.558Z,430
2017-09-22T10:48:23.555Z,420
2017-09-22T10:49:22.916Z,415
2017-09-22T10:50:23.548Z,410
2017-09-22T10:51:23.553Z,410
2017-09-22T10:52:23.551Z,435
2017-09-22T10:53:23.550Z,445
2017-09-22T10:54:23.543Z,425
2017-09-22T10:55:23.542Z,420
2017-09-22T10:56:23.542Z,390
2017-09-22T10:57:23.539Z,355
2017-09-22T10:58:23.763Z,325
2017-09-22T10:59:23.542Z,310
2017-09-22T11:00:23.540Z,295
2017-09-22T11:01:23.529Z,295
2017-09-22T11:02:23.535Z,300
2017-09-22T11:03:23.220Z,315
2017-09-22T11:04:23.532Z,330
2017-09-22T11:05:23.532Z,335
2017-09-22T11:06:23.540Z,340
2017-09-22T11:07:23.213Z,355
2017-09-22T11:08:23.539Z,370
2017-09-22T11:09:23.217Z,375
2017-09-22T11:10:23.209Z,370
2017-09-22T11:11:23.203Z,360
2017-09-22T11:12:23.528Z,360
2017-09-22T11:13:23.208Z,360
2017-09-22T11:14:23.197Z,340
2017-09-22T11:15:23.519Z,335
2017-09-22T11:16:23.770Z,325
2017-09-22T11:17:22.572Z,320
2017-09-22T11:18:23.198Z,325
2017-09-22T11:19:23.513Z,325
2017-09-22T11:20:23.191Z,325
2017-09-22T11:21:23.197Z,305
2017-09-22T11:22:23.196Z,290
2017-09-22T11:23:22.869Z,290
2017-09-22T11:24:23.512Z,270
2017-09-22T11:25:22.548Z,250
2017-09-22T11:26:23.185Z,240
2017-09-22T11:27:23.190Z,225
2017-09-22T11:28:23.191Z,215
2017-09-22T11:29:23.193Z,215
2017-09-22T11:30:23.507Z,210
2017-09-22T11:31:23.175Z,210
2017-09-22T11:32:23.176Z,220
2017-09-22T11:33:23.176Z,225
2017-09-22T11:34:23.499Z,230
2017-09-22T11:35:23.495Z,235
2017-09-22T11:36:23.173Z,245
2017-09-22T11:37:23.496Z,275
2017-09-22T11:38:23.494Z,305
2017-09-22T11:39:23.488Z,330
2017-09-22T11:40:23.486Z,355
2017-09-22T11:41:23.202Z,365
2017-09-22T11:42:23.160Z,365
2017-09-22T11:43:23.163Z,360
2017-09-22T11:44:23.474Z,360
2017-09-22T11:45:23.476Z,355
2017-09-22T11:46:23.152Z,350
2017-09-22T11:47:23.723Z,340
2017-09-22T11:48:23.147Z,325
2017-09-22T11:49:23.469Z,315
2017-09-22T11:50:23.467Z,305
2017-09-22T11:51:23.454Z,300
2017-09-22T11:52:23.141Z,290
2017-09-22T11:53:23.135Z,285
2017-09-22T11:54:23.455Z,295
2017-09-22T11:55:23.142Z,280
2017-09-22T11:56:23.141Z,265
2017-09-22T11:57:23.449Z,245
2017-09-22T11:58:23.483Z,230
2017-09-22T11:59:23.128Z,215
2017-09-22T12:00:23.448Z,205
2017-09-22T12:01:23.451Z,200
2017-09-22T12:02:23.443Z,200
2017-09-22T12:03:23.446Z,205
2017-09-22T12:04:23.126Z,205
2017-09-22T12:05:23.125Z,205
2017-09-22T12:06:23.441Z,205
2017-09-22T12:07:23.428Z,205
2017-09-22T12:08:23.105Z,210
2017-09-22T12:09:23.142Z,215
2017-09-22T12:10:23.108Z,215
2017-09-22T12:11:22.787Z,215
2017-09-22T12:12:23.102Z,220
2017-09-22T12:13:23.109Z,225
2017-09-22T12:14:23.112Z,235
2017-09-22T12:15:23.416Z,245
2017-09-22T12:16:23.412Z,250
2017-09-22T12:17:23.412Z,265
2017-09-22T12:18:23.087Z,280
2017-09-22T12:19:23.654Z,295
2017-09-22T12:20:23.402Z,320
2017-09-22T12:21:23.081Z,335
2017-09-22T12:22:23.407Z,355
2017-09-22T12:23:23.390Z,355
2017-09-22T12:24:23.072Z,350
2017-09-22T12:25:23.069Z,335
2017-09-22T12:26:23.398Z,310
2017-09-22T12:27:23.064Z,290
2017-09-22T12:28:23.382Z,265
2017-09-22T12:29:23.732Z,240
2017-09-22T12:30:23.060Z,220
2017-09-22T12:31:23.060Z,210
2017-09-22T12:32:23.381Z,200
2017-09-22T12:33:22.736Z,195
2017-09-22T12:34:23.577Z,185
2017-09-22T12:35:23.051Z,180
2017-09-22T12:36:23.050Z,175
2017-09-22T12:37:22.727Z,175
2017-09-22T12:38:23.378Z,180
2017-09-22T12:39:23.365Z,180
2017-09-22T12:40:23.380Z,185
2017-09-22T12:41:23.040Z,195
2017-09-22T12:42:23.351Z,210
2017-09-22T12:43:23.369Z,220
2017-09-22T12:44:23.345Z,230
2017-09-22T12:45:23.359Z,240
2017-09-22T12:46:23.351Z,235
2017-09-22T12:47:23.341Z,230
2017-09-22T12:48:23.342Z,225
2017-09-22T12:49:23.345Z,210
2017-09-22T12:50:23.639Z,205
2017-09-22T12:51:23.340Z,200
2017-09-22T12:52:22.693Z,200
2017-09-22T12:53:23.016Z,200
2017-09-22T12:54:23.337Z,195
2017-09-22T12:55:23.341Z,190
2017-09-22T12:56:23.327Z,190
2017-09-22T12:57:23.327Z,200
2017-09-22T12:58:23.323Z,200
2017-09-22T12:59:23.002Z,195
2017-09-22T13:00:23.620Z,205
2017-09-22T13:01:23.316Z,200
2017-09-22T13:02:22.992Z,200
2017-09-22T13:03:23.312Z,200
2017-09-22T13:04:23.335Z,195
2017-09-22T13:05:23.303Z,200
2017-09-22T13:06:23.309Z,205
2017-09-22T13:07:22.980Z,205
2017-09-22T13:08:23.301Z,210
2017-09-22T13:09:22.981Z,220
2017-09-22T13:10:22.976Z,220
2017-09-22T13:11:23.305Z,230
2017-09-22T13:12:22.968Z,240
2017-09-22T13:13:23.286Z,255
2017-09-22T13:14:23.287Z,270
2017-09-22T13:15:23.279Z,275
2017-09-22T13:16:23.282Z,275
2017-09-22T13:17:22.957Z,270
2017-09-22T13:18:23.282Z,265
2017-09-22T13:19:22.952Z,245
2017-09-22T13:20:22.949Z,235
2017-09-22T13:21:23.278Z,240
2017-09-22T13:22:23.277Z,235
2017-09-22T13:23:23.265Z,235
2017-09-22T13:24:22.946Z,235
2017-09-22T13:25:22.627Z,240
2017-09-22T13:26:22.940Z,240
2017-09-22T13:27:23.267Z,245
2017-09-22T13:28:22.614Z,255
2017-09-22T13:29:23.252Z,265
2017-09-22T13:30:22.932Z,275
2017-09-22T13:31:23.557Z,275
2017-09-22T13:32:22.601Z,280
2017-09-22T13:33:23.244Z,265
2017-09-22T13:34:23.252Z,255
2017-09-22T13:35:23.242Z,260
2017-09-22T13:36:23.237Z,270
2017-09-22T13:37:22.915Z,280
2017-09-22T13:38:23.232Z,280
2017-09-22T13:39:22.583Z,275
2017-09-22T13:40:22.587Z,270
2017-09-22T13:41:22.906Z,265
2017-09-22T13:42:23.254Z,270
2017-09-22T13:43:23.229Z,255
2017-09-22T13:44:23.223Z,250
2017-09-22T13:45:22.892Z,245
2017-09-22T13:46:23.215Z,245
2017-09-22T13:47:23.209Z,250
2017-09-22T13:48:22.572Z,250
2017-09-22T13:49:23.209Z,250
2017-09-22T13:50:22.882Z,240
2017-09-22T13:51:22.570Z,230
2017-09-22T13:52:23.195Z,225
2017-09-22T13:53:23.200Z,215
2017-09-22T13:54:23.195Z,210
2017-09-22T13:55:23.203Z,210
2017-09-22T13:56:23.205Z,205
2017-09-22T13:57:23.195Z,205
2017-09-22T13:58:22.876Z,210
2017-09-22T13:59:22.870Z,220
2017-09-22T14:00:22.866Z,230
2017-09-22T14:01:22.867Z,245
2017-09-22T14:02:22.535Z,255
2017-09-22T14:03:23.177Z,270
2017-09-22T14:04:22.533Z,285
2017-09-22T14:05:22.865Z,295
2017-09-22T14:06:23.178Z,295
2017-09-22T14:07:22.850Z,290
2017-09-22T14:08:22.521Z,290